sensor_id;sensor_type;location;lat;lon;timestamp;pressure;altitude;pressure_sealevel;temperature;humidity
65175;BME280;51761;42.126;24.752;2022-08-21T00:01:24;98926.09;;;21.42;100.00
65175;BME280;51761;42.126;24.752;2022-08-21T00:03:51;98938.66;;;21.19;99.27
65175;BME280;51761;42.126;24.752;2022-08-21T00:06:16;98978.00;;;21.37;99.95
65175;BME280;51761;42.126;24.752;2022-08-21T00:08:42;98974.34;;;21.31;100.00
65175;BME280;51761;42.126;24.752;2022-08-21T00:11:08;98958.53;;;21.14;100.00
65175;BME280;51761;42.126;24.752;2022-08-21T00:13:34;98960.16;;;21.37;100.00
65175;BME280;51761;42.126;24.752;2022-08-21T00:16:01;98927.84;;;21.23;100.00
65175;BME280;51761;42.126;24.752;2022-08-21T00:18:27;98954.53;;;21.59;100.00
65175;BME280;51761;42.126;24.752;2022-08-21T00:20:52;98940.88;;;21.57;100.00
65175;BME280;51761;42.126;24.752;2022-08-21T00:23:18;98940.38;;;21.64;98.10
65175;BME280;51761;42.126;24.752;2022-08-21T00:25:45;98910.09;;;21.50;97.96
65175;BME280;51761;42.126;24.752;2022-08-21T00:28:11;98908.03;;;21.51;98.90
65175;BME280;51761;42.126;24.752;2022-08-21T00:30:37;98937.75;;;21.55;99.27
65175;BME280;51761;42.126;24.752;2022-08-21T00:33:04;98934.09;;;21.49;99.67
65175;BME280;51761;42.126;24.752;2022-08-21T00:35:33;98944.94;;;21.45;98.21
65175;BME280;51761;42.126;24.752;2022-08-21T00:37:59;98945.16;;;21.31;99.50
65175;BME280;51761;42.126;24.752;2022-08-21T00:40:37;98941.28;;;21.34;99.57
65175;BME280;51761;42.126;24.752;2022-08-21T00:43:04;98876.66;;;20.96;100.00
65175;BME280;51761;42.126;24.752;2022-08-21T00:45:29;98909.47;;;21.13;100.00
65175;BME280;51761;42.126;24.752;2022-08-21T00:47:55;98915.41;;;21.15;100.00
65175;BME280;51761;42.126;24.752;2022-08-21T00:50:22;98891.88;;;20.93;99.92
65175;BME280;51761;42.126;24.752;2022-08-21T00:52:50;98902.66;;;20.84;99.17
65175;BME280;51761;42.126;24.752;2022-08-21T00:55:18;98926.16;;;20.89;100.00
65175;BME280;51761;42.126;24.752;2022-08-21T00:57:49;98933.38;;;20.85;100.00
65175;BME280;51761;42.126;24.752;2022-08-21T01:00:20;98935.25;;;20.99;100.00
65175;BME280;51761;42.126;24.752;2022-08-21T01:02:46;98923.19;;;21.15;100.00
65175;BME280;51761;42.126;24.752;2022-08-21T01:05:12;98891.91;;;21.09;100.00
65175;BME280;51761;42.126;24.752;2022-08-21T01:07:38;98924.56;;;21.52;99.74
65175;BME280;51761;42.126;24.752;2022-08-21T01:10:05;98918.69;;;21.61;98.97
65175;BME280;51761;42.126;24.752;2022-08-21T01:12:32;98901.81;;;21.41;100.00
65175;BME280;51761;42.126;24.752;2022-08-21T01:15:02;98903.38;;;21.42;100.00
65175;BME280;51761;42.126;24.752;2022-08-21T01:17:28;98870.03;;;21.32;100.00
65175;BME280;51761;42.126;24.752;2022-08-21T01:20:00;98880.16;;;21.60;98.99
65175;BME280;51761;42.126;24.752;2022-08-21T01:22:26;98892.06;;;21.64;99.52
65175;BME280;51761;42.126;24.752;2022-08-21T01:24:52;98859.97;;;21.36;97.75
65175;BME280;51761;42.126;24.752;2022-08-21T01:27:17;98888.69;;;21.60;100.00
65175;BME280;51761;42.126;24.752;2022-08-21T01:32:17;98866.16;;;21.35;100.00
65175;BME280;51761;42.126;24.752;2022-08-21T01:34:45;98850.41;;;21.23;100.00
65175;BME280;51761;42.126;24.752;2022-08-21T01:37:12;98872.88;;;21.32;100.00
65175;BME280;51761;42.126;24.752;2022-08-21T01:39:40;98882.94;;;21.27;100.00
65175;BME280;51761;42.126;24.752;2022-08-21T01:42:06;98835.34;;;20.95;100.00
65175;BME280;51761;42.126;24.752;2022-08-21T01:44:32;98874.94;;;21.37;100.00
65175;BME280;51761;42.126;24.752;2022-08-21T01:47:00;98881.94;;;21.41;100.00
65175;BME280;51761;42.126;24.752;2022-08-21T01:49:26;98890.97;;;21.45;100.00
65175;BME280;51761;42.126;24.752;2022-08-21T01:51:52;98865.63;;;21.25;99.84
65175;BME280;51761;42.126;24.752;2022-08-21T01:54:18;98901.78;;;21.36;99.25
65175;BME280;51761;42.126;24.752;2022-08-21T01:56:47;98910.03;;;21.23;97.90
65175;BME280;51761;42.126;24.752;2022-08-21T01:59:14;98943.59;;;21.19;99.01
65175;BME280;51761;42.126;24.752;2022-08-21T02:01:39;98943.78;;;21.04;100.00
65175;BME280;51761;42.126;24.752;2022-08-21T02:04:06;98931.59;;;20.93;100.00
65175;BME280;51761;42.126;24.752;2022-08-21T02:06:32;98952.31;;;21.10;100.00
65175;BME280;51761;42.126;24.752;2022-08-21T02:08:58;98943.06;;;21.15;99.94
65175;BME280;51761;42.126;24.752;2022-08-21T02:11:23;98884.88;;;20.88;100.00
65175;BME280;51761;42.126;24.752;2022-08-21T02:13:49;98937.69;;;21.33;100.00
65175;BME280;51761;42.126;24.752;2022-08-21T02:16:15;98943.47;;;21.66;100.00
65175;BME280;51761;42.126;24.752;2022-08-21T02:18:41;98952.53;;;21.76;100.00
65175;BME280;51761;42.126;24.752;2022-08-21T02:21:07;98920.97;;;21.57;100.00
65175;BME280;51761;42.126;24.752;2022-08-21T02:23:33;98952.03;;;21.83;97.09
65175;BME280;51761;42.126;24.752;2022-08-21T02:26:01;98953.59;;;21.84;96.99
65175;BME280;51761;42.126;24.752;2022-08-21T02:28:27;98949.69;;;21.81;99.77
65175;BME280;51761;42.126;24.752;2022-08-21T02:30:54;98929.53;;;21.68;98.32
65175;BME280;51761;42.126;24.752;2022-08-21T02:33:21;98947.63;;;21.76;98.88
65175;BME280;51761;42.126;24.752;2022-08-21T02:35:47;98975.00;;;21.79;97.75
65175;BME280;51761;42.126;24.752;2022-08-21T02:38:22;98986.41;;;21.90;96.61
65175;BME280;51761;42.126;24.752;2022-08-21T02:40:49;98990.03;;;21.85;98.29
65175;BME280;51761;42.126;24.752;2022-08-21T02:43:16;98992.63;;;22.00;98.48
65175;BME280;51761;42.126;24.752;2022-08-21T02:45:43;98993.41;;;21.89;98.49
65175;BME280;51761;42.126;24.752;2022-08-21T02:48:12;98956.41;;;21.78;95.87
65175;BME280;51761;42.126;24.752;2022-08-21T02:50:42;98952.53;;;21.81;97.11
65175;BME280;51761;42.126;24.752;2022-08-21T02:53:09;98982.28;;;22.02;97.85
65175;BME280;51761;42.126;24.752;2022-08-21T02:55:36;98974.53;;;22.03;97.93
65175;BME280;51761;42.126;24.752;2022-08-21T02:58:04;98981.53;;;22.18;97.52
65175;BME280;51761;42.126;24.752;2022-08-21T03:00:31;98975.06;;;22.23;97.66
65175;BME280;51761;42.126;24.752;2022-08-21T03:02:57;98982.56;;;22.32;95.14
65175;BME280;51761;42.126;24.752;2022-08-21T03:05:24;98943.25;;;22.14;96.13
65175;BME280;51761;42.126;24.752;2022-08-21T03:07:50;98947.66;;;22.20;97.10
65175;BME280;51761;42.126;24.752;2022-08-21T03:10:18;98981.53;;;22.35;95.71
65175;BME280;51761;42.126;24.752;2022-08-21T03:12:45;98962.41;;;22.13;96.56
65175;BME280;51761;42.126;24.752;2022-08-21T03:15:14;98953.84;;;21.91;97.25
65175;BME280;51761;42.126;24.752;2022-08-21T03:17:40;98962.63;;;22.04;96.32
65175;BME280;51761;42.126;24.752;2022-08-21T03:20:07;98992.38;;;22.09;98.06
65175;BME280;51761;42.126;24.752;2022-08-21T03:22:33;98986.16;;;21.99;97.67
65175;BME280;51761;42.126;24.752;2022-08-21T03:24:59;98960.84;;;21.90;99.31
65175;BME280;51761;42.126;24.752;2022-08-21T03:27:26;99000.13;;;22.03;98.86
65175;BME280;51761;42.126;24.752;2022-08-21T03:29:53;98964.94;;;21.78;100.00
65175;BME280;51761;42.126;24.752;2022-08-21T03:32:19;98996.50;;;21.97;100.00
65175;BME280;51761;42.126;24.752;2022-08-21T03:34:45;98966.75;;;21.81;99.86
65175;BME280;51761;42.126;24.752;2022-08-21T03:37:11;98960.78;;;21.63;100.00
65175;BME280;51761;42.126;24.752;2022-08-21T03:39:36;98991.56;;;21.75;100.00
65175;BME280;51761;42.126;24.752;2022-08-21T03:42:02;98962.00;;;21.45;100.00
65175;BME280;51761;42.126;24.752;2022-08-21T03:44:27;99004.41;;;21.60;99.23
65175;BME280;51761;42.126;24.752;2022-08-21T03:46:57;99008.25;;;21.46;99.73
65175;BME280;51761;42.126;24.752;2022-08-21T03:49:23;98995.03;;;21.37;99.76
65175;BME280;51761;42.126;24.752;2022-08-21T03:51:49;98987.47;;;21.23;100.00
65175;BME280;51761;42.126;24.752;2022-08-21T03:54:15;99002.22;;;21.27;100.00
65175;BME280;51761;42.126;24.752;2022-08-21T03:56:40;99008.22;;;21.40;100.00
65175;BME280;51761;42.126;24.752;2022-08-21T03:59:06;98982.81;;;21.20;100.00
65175;BME280;51761;42.126;24.752;2022-08-21T04:01:32;99016.13;;;21.25;100.00
65175;BME280;51761;42.126;24.752;2022-08-21T04:03:58;98977.50;;;20.86;100.00
65175;BME280;51761;42.126;24.752;2022-08-21T04:06:24;98986.66;;;20.70;100.00
65175;BME280;51761;42.126;24.752;2022-08-21T04:08:52;99007.00;;;20.63;100.00
65175;BME280;51761;42.126;24.752;2022-08-21T04:11:17;99025.31;;;20.62;100.00
65175;BME280;51761;42.126;24.752;2022-08-21T04:13:44;98990.41;;;20.51;100.00
65175;BME280;51761;42.126;24.752;2022-08-21T04:16:09;99021.41;;;20.60;100.00
65175;BME280;51761;42.126;24.752;2022-08-21T04:18:35;99019.25;;;20.49;100.00
65175;BME280;51761;42.126;24.752;2022-08-21T04:21:02;98991.38;;;20.42;100.00
65175;BME280;51761;42.126;24.752;2022-08-21T04:23:28;99021.78;;;20.73;100.00
65175;BME280;51761;42.126;24.752;2022-08-21T04:25:54;98991.00;;;20.60;100.00
65175;BME280;51761;42.126;24.752;2022-08-21T04:28:22;99024.09;;;20.74;100.00
65175;BME280;51761;42.126;24.752;2022-08-21T04:30:50;99023.06;;;20.72;100.00
65175;BME280;51761;42.126;24.752;2022-08-21T04:33:17;99019.91;;;20.70;100.00
65175;BME280;51761;42.126;24.752;2022-08-21T04:35:43;99011.56;;;20.86;100.00
65175;BME280;51761;42.126;24.752;2022-08-21T04:38:09;99000.84;;;20.70;100.00
65175;BME280;51761;42.126;24.752;2022-08-21T04:40:35;99005.47;;;20.68;100.00
65175;BME280;51761;42.126;24.752;2022-08-21T04:43:04;99008.75;;;20.91;100.00
65175;BME280;51761;42.126;24.752;2022-08-21T04:45:37;99008.78;;;20.97;100.00
65175;BME280;51761;42.126;24.752;2022-08-21T04:48:05;98995.06;;;20.90;100.00
65175;BME280;51761;42.126;24.752;2022-08-21T04:53:01;98986.69;;;21.17;100.00
65175;BME280;51761;42.126;24.752;2022-08-21T04:55:27;98981.53;;;21.21;100.00
65175;BME280;51761;42.126;24.752;2022-08-21T04:57:55;98949.47;;;21.04;100.00
65175;BME280;51761;42.126;24.752;2022-08-21T05:00:23;98983.38;;;21.30;100.00
65175;BME280;51761;42.126;24.752;2022-08-21T05:02:51;98970.97;;;21.22;100.00
65175;BME280;51761;42.126;24.752;2022-08-21T05:05:20;98960.38;;;21.22;100.00
65175;BME280;51761;42.126;24.752;2022-08-21T05:07:46;98982.06;;;21.25;100.00
65175;BME280;51761;42.126;24.752;2022-08-21T05:10:13;98981.47;;;21.05;100.00
65175;BME280;51761;42.126;24.752;2022-08-21T05:12:39;98981.78;;;21.18;100.00
65175;BME280;51761;42.126;24.752;2022-08-21T05:15:07;98945.28;;;20.94;100.00
65175;BME280;51761;42.126;24.752;2022-08-21T05:17:33;98974.78;;;21.13;100.00
65175;BME280;51761;42.126;24.752;2022-08-21T05:19:58;98975.59;;;21.19;100.00
65175;BME280;51761;42.126;24.752;2022-08-21T05:22:24;98963.53;;;21.35;100.00
65175;BME280;51761;42.126;24.752;2022-08-21T05:24:50;98969.00;;;21.50;100.00
65175;BME280;51761;42.126;24.752;2022-08-21T05:27:16;98967.00;;;21.72;100.00
65175;BME280;51761;42.126;24.752;2022-08-21T05:29:42;98969.06;;;21.66;100.00
65175;BME280;51761;42.126;24.752;2022-08-21T05:32:12;98939.78;;;21.49;100.00
65175;BME280;51761;42.126;24.752;2022-08-21T05:34:37;98972.44;;;21.70;100.00
65175;BME280;51761;42.126;24.752;2022-08-21T05:37:03;98970.09;;;21.69;100.00
65175;BME280;51761;42.126;24.752;2022-08-21T05:39:29;98979.16;;;21.73;100.00
65175;BME280;51761;42.126;24.752;2022-08-21T05:41:55;98951.09;;;21.27;100.00
65175;BME280;51761;42.126;24.752;2022-08-21T05:44:21;98974.63;;;21.39;100.00
65175;BME280;51761;42.126;24.752;2022-08-21T05:46:46;98975.38;;;21.34;100.00
65175;BME280;51761;42.126;24.752;2022-08-21T05:49:12;98983.16;;;21.33;100.00
65175;BME280;51761;42.126;24.752;2022-08-21T05:51:40;98987.81;;;21.36;100.00
65175;BME280;51761;42.126;24.752;2022-08-21T05:54:06;98952.38;;;21.21;100.00
65175;BME280;51761;42.126;24.752;2022-08-21T05:56:31;98989.09;;;21.41;100.00
65175;BME280;51761;42.126;24.752;2022-08-21T05:58:57;98996.38;;;21.53;100.00
65175;BME280;51761;42.126;24.752;2022-08-21T06:01:23;98994.31;;;21.48;100.00
65175;BME280;51761;42.126;24.752;2022-08-21T06:03:49;99002.06;;;21.53;100.00
65175;BME280;51761;42.126;24.752;2022-08-21T06:06:14;98998.16;;;21.50;100.00
65175;BME280;51761;42.126;24.752;2022-08-21T06:08:40;98992.75;;;21.47;100.00
65175;BME280;51761;42.126;24.752;2022-08-21T06:11:07;99010.06;;;21.54;100.00
65175;BME280;51761;42.126;24.752;2022-08-21T06:13:34;99004.94;;;21.58;100.00
65175;BME280;51761;42.126;24.752;2022-08-21T06:16:12;99007.25;;;21.60;100.00
65175;BME280;51761;42.126;24.752;2022-08-21T06:18:39;99017.91;;;21.70;100.00
65175;BME280;51761;42.126;24.752;2022-08-21T06:21:05;98986.56;;;21.54;100.00
65175;BME280;51761;42.126;24.752;2022-08-21T06:23:32;99011.44;;;21.64;100.00
65175;BME280;51761;42.126;24.752;2022-08-21T06:25:58;99013.50;;;21.69;100.00
65175;BME280;51761;42.126;24.752;2022-08-21T06:28:23;99004.47;;;21.76;100.00
65175;BME280;51761;42.126;24.752;2022-08-21T06:30:49;99006.53;;;21.81;100.00
65175;BME280;51761;42.126;24.752;2022-08-21T06:33:15;98988.22;;;21.77;100.00
65175;BME280;51761;42.126;24.752;2022-08-21T06:35:40;98986.94;;;21.94;99.95
65175;BME280;51761;42.126;24.752;2022-08-21T06:38:05;98964.97;;;21.89;98.61
65175;BME280;51761;42.126;24.752;2022-08-21T06:40:31;98994.44;;;22.08;96.95
65175;BME280;51761;42.126;24.752;2022-08-21T06:42:58;98996.28;;;22.22;96.84
65175;BME280;51761;42.126;24.752;2022-08-21T06:45:24;98993.97;;;22.37;98.17
65175;BME280;51761;42.126;24.752;2022-08-21T06:47:50;98889.75;;;21.90;97.50
65175;BME280;51761;42.126;24.752;2022-08-21T06:50:15;98986.44;;;22.56;94.23
65175;BME280;51761;42.126;24.752;2022-08-21T06:52:41;98982.56;;;22.59;92.20
65175;BME280;51761;42.126;24.752;2022-08-21T06:55:08;98982.81;;;22.72;94.09
65175;BME280;51761;42.126;24.752;2022-08-21T06:57:34;98965.19;;;22.79;94.60
65175;BME280;51761;42.126;24.752;2022-08-21T07:00:00;98947.31;;;22.78;94.97
65175;BME280;51761;42.126;24.752;2022-08-21T07:02:26;98958.13;;;23.02;91.99
65175;BME280;51761;42.126;24.752;2022-08-21T07:04:51;98963.78;;;23.07;91.42
65175;BME280;51761;42.126;24.752;2022-08-21T07:07:17;98956.81;;;23.14;92.76
65175;BME280;51761;42.126;24.752;2022-08-21T07:09:43;98978.25;;;23.31;90.44
65175;BME280;51761;42.126;24.752;2022-08-21T07:12:09;98952.91;;;23.17;90.77
65175;BME280;51761;42.126;24.752;2022-08-21T07:14:35;98972.53;;;23.37;90.00
65175;BME280;51761;42.126;24.752;2022-08-21T07:17:01;98974.94;;;23.73;89.98
65175;BME280;51761;42.126;24.752;2022-08-21T07:19:26;98957.41;;;23.99;88.97
65175;BME280;51761;42.126;24.752;2022-08-21T07:21:56;98973.09;;;24.16;87.16
65175;BME280;51761;42.126;24.752;2022-08-21T07:24:23;98943.88;;;24.05;86.12
65175;BME280;51761;42.126;24.752;2022-08-21T07:26:48;98969.09;;;24.30;85.48
65175;BME280;51761;42.126;24.752;2022-08-21T07:29:14;98970.63;;;24.31;86.38
65175;BME280;51761;42.126;24.752;2022-08-21T07:31:40;98968.78;;;24.33;81.84
65175;BME280;51761;42.126;24.752;2022-08-21T07:34:05;98941.00;;;24.05;85.13
65175;BME280;51761;42.126;24.752;2022-08-21T07:36:31;98942.25;;;24.15;85.76
65175;BME280;51761;42.126;24.752;2022-08-21T07:38:57;98974.72;;;24.35;84.27
65175;BME280;51761;42.126;24.752;2022-08-21T07:41:25;98966.59;;;24.45;83.76
65175;BME280;51761;42.126;24.752;2022-08-21T07:43:51;98969.34;;;24.61;84.06
65175;BME280;51761;42.126;24.752;2022-08-21T07:46:16;98961.50;;;24.67;79.85
65175;BME280;51761;42.126;24.752;2022-08-21T07:48:42;98955.38;;;24.58;82.56
65175;BME280;51761;42.126;24.752;2022-08-21T07:51:11;98962.44;;;24.46;82.59
65175;BME280;51761;42.126;24.752;2022-08-21T07:53:38;98945.78;;;24.50;82.43
65175;BME280;51761;42.126;24.752;2022-08-21T07:56:05;98957.88;;;24.67;82.75
65175;BME280;51761;42.126;24.752;2022-08-21T07:58:31;98965.91;;;24.68;82.01
65175;BME280;51761;42.126;24.752;2022-08-21T08:00:57;98944.59;;;24.40;79.96
65175;BME280;51761;42.126;24.752;2022-08-21T08:03:24;98977.50;;;24.46;80.46
65175;BME280;51761;42.126;24.752;2022-08-21T08:05:50;98980.88;;;24.16;84.13
65175;BME280;51761;42.126;24.752;2022-08-21T08:08:16;98974.13;;;23.78;85.57
65175;BME280;51761;42.126;24.752;2022-08-21T08:10:42;98978.03;;;23.70;84.59
65175;BME280;51761;42.126;24.752;2022-08-21T08:13:09;98968.22;;;23.65;87.12
65175;BME280;51761;42.126;24.752;2022-08-21T08:15:35;98962.66;;;23.43;88.30
65175;BME280;51761;42.126;24.752;2022-08-21T08:18:01;98956.63;;;23.58;85.88
65175;BME280;51761;42.126;24.752;2022-08-21T08:20:27;98934.53;;;23.69;85.01
65175;BME280;51761;42.126;24.752;2022-08-21T08:22:53;98970.56;;;24.07;81.60
65175;BME280;51761;42.126;24.752;2022-08-21T08:25:21;98973.56;;;23.85;84.71
65175;BME280;51761;42.126;24.752;2022-08-21T08:27:48;98938.88;;;23.76;83.61
65175;BME280;51761;42.126;24.752;2022-08-21T08:30:16;98939.09;;;23.83;80.57
65175;BME280;51761;42.126;24.752;2022-08-21T08:32:42;98932.34;;;23.81;82.44
65175;BME280;51761;42.126;24.752;2022-08-21T08:35:08;98919.44;;;23.74;83.53
65175;BME280;51761;42.126;24.752;2022-08-21T08:37:35;98955.84;;;23.98;81.57
65175;BME280;51761;42.126;24.752;2022-08-21T08:40:04;98955.34;;;23.99;80.21
65175;BME280;51761;42.126;24.752;2022-08-21T08:42:33;98925.16;;;23.74;82.08
65175;BME280;51761;42.126;24.752;2022-08-21T08:47:36;98945.41;;;23.65;85.48
65175;BME280;51761;42.126;24.752;2022-08-21T08:50:13;98907.47;;;23.41;85.53
65175;BME280;51761;42.126;24.752;2022-08-21T08:52:47;98944.88;;;23.72;85.26
65175;BME280;51761;42.126;24.752;2022-08-21T08:55:38;98947.25;;;23.63;85.55
65175;BME280;51761;42.126;24.752;2022-08-21T08:58:04;98913.53;;;23.67;83.21
65175;BME280;51761;42.126;24.752;2022-08-21T09:00:31;98930.78;;;23.85;84.50
65175;BME280;51761;42.126;24.752;2022-08-21T09:02:59;98901.19;;;23.94;83.94
65175;BME280;51761;42.126;24.752;2022-08-21T09:05:28;98936.28;;;24.42;82.27
65175;BME280;51761;42.126;24.752;2022-08-21T09:27:17;98886.50;;;24.85;78.94
65175;BME280;51761;42.126;24.752;2022-08-21T09:29:46;98900.19;;;24.92;77.82
65175;BME280;51761;42.126;24.752;2022-08-21T09:32:20;98901.59;;;25.28;76.28
65175;BME280;51761;42.126;24.752;2022-08-21T09:35:12;98902.75;;;25.38;76.19
65175;BME280;51761;42.126;24.752;2022-08-21T09:38:05;98899.72;;;25.31;73.48
65175;BME280;51761;42.126;24.752;2022-08-21T09:43:02;98908.03;;;25.10;76.36
65175;BME280;51761;42.126;24.752;2022-08-21T09:45:29;98888.84;;;24.87;75.90
65175;BME280;51761;42.126;24.752;2022-08-21T09:47:55;98898.56;;;24.78;76.33
65175;BME280;51761;42.126;24.752;2022-08-21T09:50:25;98899.94;;;24.90;77.91
65175;BME280;51761;42.126;24.752;2022-08-21T09:52:54;98898.53;;;25.02;76.83
65175;BME280;51761;42.126;24.752;2022-08-21T09:55:31;98890.03;;;24.73;75.53
65175;BME280;51761;42.126;24.752;2022-08-21T09:58:17;98900.34;;;24.57;79.23
65175;BME280;51761;42.126;24.752;2022-08-21T10:00:44;98913.84;;;24.57;78.76
65175;BME280;51761;42.126;24.752;2022-08-21T10:03:19;98909.09;;;24.35;79.47
65175;BME280;51761;42.126;24.752;2022-08-21T10:06:21;98917.38;;;24.39;79.52
65175;BME280;51761;42.126;24.752;2022-08-21T10:08:47;98911.63;;;24.44;80.04
65175;BME280;51761;42.126;24.752;2022-08-21T10:11:15;98920.25;;;24.33;78.10
65175;BME280;51761;42.126;24.752;2022-08-21T10:24:33;98901.50;;;24.14;83.03
65175;BME280;51761;42.126;24.752;2022-08-21T10:27:18;98912.25;;;24.03;85.72
65175;BME280;51761;42.126;24.752;2022-08-21T10:29:58;98912.69;;;24.12;85.49
65175;BME280;51761;42.126;24.752;2022-08-21T10:35:18;98916.94;;;24.00;86.25
65175;BME280;51761;42.126;24.752;2022-08-21T10:40:34;98913.41;;;24.18;85.17
65175;BME280;51761;42.126;24.752;2022-08-21T10:48:47;98907.84;;;24.02;86.67
65175;BME280;51761;42.126;24.752;2022-08-21T10:54:05;98923.50;;;24.19;86.60
65175;BME280;51761;42.126;24.752;2022-08-21T10:56:38;98914.78;;;24.12;85.81
65175;BME280;51761;42.126;24.752;2022-08-21T11:01:44;98923.34;;;24.35;84.92
65175;BME280;51761;42.126;24.752;2022-08-21T11:04:17;98921.81;;;24.34;85.21
65175;BME280;51761;42.126;24.752;2022-08-21T11:07:35;98914.31;;;24.31;85.22
65175;BME280;51761;42.126;24.752;2022-08-21T11:09:34;98912.28;;;24.26;82.58
65175;BME280;51761;42.126;24.752;2022-08-21T11:12:06;98917.38;;;24.10;83.72
65175;BME280;51761;42.126;24.752;2022-08-21T11:17:49;98891.44;;;24.08;82.79
65175;BME280;51761;42.126;24.752;2022-08-21T11:20:26;98884.78;;;24.00;82.58
65175;BME280;51761;42.126;24.752;2022-08-21T11:23:01;98902.53;;;24.17;82.33
65175;BME280;51761;42.126;24.752;2022-08-21T11:25:40;98874.16;;;24.00;82.61
65175;BME280;51761;42.126;24.752;2022-08-21T11:28:17;98911.28;;;24.53;80.00
65175;BME280;51761;42.126;24.752;2022-08-21T11:30:56;98909.50;;;24.45;81.62
65175;BME280;51761;42.126;24.752;2022-08-21T11:47:25;98901.41;;;24.54;81.97
65175;BME280;51761;42.126;24.752;2022-08-21T11:52:47;98898.13;;;24.16;84.91
65175;BME280;51761;42.126;24.752;2022-08-21T11:57:57;98896.88;;;24.64;82.84
65175;BME280;51761;42.126;24.752;2022-08-21T12:00:36;98890.16;;;24.86;78.28
65175;BME280;51761;42.126;24.752;2022-08-21T12:03:14;98898.84;;;24.75;80.22
65175;BME280;51761;42.126;24.752;2022-08-21T12:05:52;98854.66;;;24.57;80.86
65175;BME280;51761;42.126;24.752;2022-08-21T12:08:35;98880.03;;;24.85;79.38
65175;BME280;51761;42.126;24.752;2022-08-21T12:11:08;98868.63;;;24.85;79.69
65175;BME280;51761;42.126;24.752;2022-08-21T12:13:40;98856.28;;;24.53;79.27
65175;BME280;51761;42.126;24.752;2022-08-21T12:16:08;98879.59;;;24.57;79.03
65175;BME280;51761;42.126;24.752;2022-08-21T12:18:35;98869.25;;;24.48;79.81
65175;BME280;51761;42.126;24.752;2022-08-21T12:21:25;98874.84;;;24.35;81.06
65175;BME280;51761;42.126;24.752;2022-08-21T12:24:05;98861.94;;;24.29;82.49
65175;BME280;51761;42.126;24.752;2022-08-21T12:29:32;98848.66;;;24.08;85.45
65175;BME280;51761;42.126;24.752;2022-08-21T12:34:35;98856.88;;;24.17;82.01
65175;BME280;51761;42.126;24.752;2022-08-21T12:37:09;98825.13;;;24.02;82.46
65175;BME280;51761;42.126;24.752;2022-08-21T12:39:44;98830.78;;;24.07;83.82
65175;BME280;51761;42.126;24.752;2022-08-21T12:42:31;98847.53;;;24.16;83.77
65175;BME280;51761;42.126;24.752;2022-08-21T12:45:04;98854.38;;;24.31;82.48
65175;BME280;51761;42.126;24.752;2022-08-21T12:47:43;98849.50;;;24.26;82.88
65175;BME280;51761;42.126;24.752;2022-08-21T12:50:15;98842.03;;;24.47;80.57
65175;BME280;51761;42.126;24.752;2022-08-21T12:52:51;98840.66;;;24.30;81.13
65175;BME280;51761;42.126;24.752;2022-08-21T12:55:27;98803.25;;;24.33;81.48
65175;BME280;51761;42.126;24.752;2022-08-21T12:57:53;98829.38;;;24.85;78.68
65175;BME280;51761;42.126;24.752;2022-08-21T13:00:23;98822.59;;;24.88;77.39
65175;BME280;51761;42.126;24.752;2022-08-21T13:02:51;98791.56;;;24.98;75.91
65175;BME280;51761;42.126;24.752;2022-08-21T13:05:39;98815.22;;;25.35;77.86
65175;BME280;51761;42.126;24.752;2022-08-21T13:08:06;98817.69;;;25.26;78.61
65175;BME280;51761;42.126;24.752;2022-08-21T13:10:34;98815.84;;;25.28;77.92
65175;BME280;51761;42.126;24.752;2022-08-21T13:13:04;98814.19;;;25.14;78.53
65175;BME280;51761;42.126;24.752;2022-08-21T13:15:34;98788.09;;;25.05;77.96
65175;BME280;51761;42.126;24.752;2022-08-21T13:18:02;98820.63;;;25.39;75.31
65175;BME280;51761;42.126;24.752;2022-08-21T13:20:39;98808.63;;;25.40;77.20
65175;BME280;51761;42.126;24.752;2022-08-21T13:23:19;98824.53;;;25.54;77.35
65175;BME280;51761;42.126;24.752;2022-08-21T13:25:45;98820.38;;;25.55;76.82
65175;BME280;51761;42.126;24.752;2022-08-21T13:28:12;98819.66;;;25.68;75.16
65175;BME280;51761;42.126;24.752;2022-08-21T13:30:51;98811.56;;;25.85;74.85
65175;BME280;51761;42.126;24.752;2022-08-21T13:33:21;98821.88;;;25.75;74.93
65175;BME280;51761;42.126;24.752;2022-08-21T13:36:05;98821.47;;;25.84;76.33
65175;BME280;51761;42.126;24.752;2022-08-21T13:38:34;98797.44;;;26.31;74.61
65175;BME280;51761;42.126;24.752;2022-08-21T13:43:45;98804.94;;;26.99;72.08
65175;BME280;51761;42.126;24.752;2022-08-21T13:46:12;98812.91;;;27.26;69.94
65175;BME280;51761;42.126;24.752;2022-08-21T13:48:41;98818.84;;;27.41;68.94
65175;BME280;51761;42.126;24.752;2022-08-21T13:51:07;98746.88;;;26.72;68.31
65175;BME280;51761;42.126;24.752;2022-08-21T13:53:46;98798.31;;;27.04;68.13
65175;BME280;51761;42.126;24.752;2022-08-21T13:56:41;98814.63;;;27.09;68.25
65175;BME280;51761;42.126;24.752;2022-08-21T13:59:06;98805.00;;;27.06;68.96
65175;BME280;51761;42.126;24.752;2022-08-21T14:01:54;98808.03;;;26.88;70.34
65175;BME280;51761;42.126;24.752;2022-08-21T14:04:36;98810.44;;;26.84;68.09
65175;BME280;51761;42.126;24.752;2022-08-21T14:07:16;98780.59;;;26.40;72.05
65175;BME280;51761;42.126;24.752;2022-08-21T14:09:44;98817.75;;;26.59;70.92
65175;BME280;51761;42.126;24.752;2022-08-21T14:12:17;98810.03;;;26.41;71.74
65175;BME280;51761;42.126;24.752;2022-08-21T14:14:43;98805.81;;;26.29;73.51
65175;BME280;51761;42.126;24.752;2022-08-21T14:17:25;98801.09;;;26.31;73.58
65175;BME280;51761;42.126;24.752;2022-08-21T14:19:51;98766.63;;;26.11;73.70
65175;BME280;51761;42.126;24.752;2022-08-21T14:25:08;98762.88;;;26.29;72.73
65175;BME280;51761;42.126;24.752;2022-08-21T14:27:42;98754.34;;;26.88;70.21